Portada
METAR-TAF:

METAR-TAF

Aeropuertos :

Aeropuerto de Split

Split, Croacia

latitud: 43-32N, longitud: 016-18E, altitud: 19 m

Observación

El informe se hizo hace 17 minutos, a las 16:00 UTC
Viento 6 kt del suroeste
Temperatura 16°C
Humedad 51%
Presión 1030 hPa
Visibilidad 10 km o más
sin nubes por debajo de 1500 m y sin presencia de cumulonimbus.

METAR: LDSP 251600Z 23006KT CAVOK 16/06 Q1030 BECMG 29003KT

Hora: 17:17 (16:17 UTC)

Pronóstico

El informe se hizo hace 4 horas y 52 minutos, a las 11:25 UTC
Pronóstico válido del 25 a las 12 UTC al 26 a las 12 UTC
Viento 2 kt con dirección variable
Visibilidad 10 km o más
sin nubes por debajo de 1500 m y sin presencia de cumulonimbus.
Probabilidad 30% :
Temporalmente
del 25 a las 12 UTC al 25 a las 14 UTC
Viento 6 kt del suroeste

TAF: LDSP 251125Z 2512/2612 VRB02KT CAVOK TX20/2512Z TN06/2606Z PROB30 TEMPO 2512/2514 23006KT

Observaciones y pronósticos meteorológicos de más de 4000 aeropuertos (mensajes METAR y TAF).

Los puntos amarillos y rojos representan las estaciones disponibles.

Ponga el ratón en el punto deseado para ver el nombre de la estación.

Haga clic para ver las observaciones y los pronósticos meteorológicos.

Para cambiar el mapa : haga clic en los botones verdes con una cruz de color negro para hacer un zoom, en el botón verde con un guión para alejar o en las flechas verdes para mapas adyacentes.


METAR-TAF: